createdAt,value
2022-08-26T00:00:19.920Z,96.41
2022-08-26T00:03:03.656Z,96.26
2022-08-26T00:05:31.850Z,96.53
2022-08-26T00:07:59.985Z,96.50
2022-08-26T00:10:29.112Z,96.74
2022-08-26T00:12:57.353Z,97.14
2022-08-26T00:15:25.738Z,96.89
2022-08-26T00:17:56.672Z,97.22
2022-08-26T00:20:30.024Z,97.48
2022-08-26T00:22:59.273Z,97.42
2022-08-26T00:25:27.955Z,97.56
2022-08-26T00:27:56.118Z,97.61
2022-08-26T00:30:27.982Z,97.79
2022-08-26T00:32:57.293Z,97.78
2022-08-26T00:35:27.969Z,97.88
2022-08-26T00:37:57.541Z,97.83
2022-08-26T00:40:34.041Z,97.97
2022-08-26T00:43:05.225Z,98.07
2022-08-26T00:45:44.582Z,98.32
2022-08-26T00:48:16.207Z,98.46
2022-08-26T00:50:53.404Z,98.62
2022-08-26T00:53:25.983Z,98.59
2022-08-26T00:56:08.286Z,98.72
2022-08-26T00:58:39.218Z,98.75
2022-08-26T01:01:10.614Z,98.79
2022-08-26T01:03:39.399Z,98.93
2022-08-26T01:06:13.019Z,98.92
2022-08-26T01:08:42.079Z,99.02
2022-08-26T01:11:10.317Z,99.12
2022-08-26T01:13:39.615Z,99.09
2022-08-26T01:16:13.813Z,99.15
2022-08-26T01:18:45.098Z,99.39
2022-08-26T01:21:17.371Z,99.54
2022-08-26T01:23:49.881Z,99.70
2022-08-26T01:26:41.494Z,99.75
2022-08-26T01:29:15.153Z,99.87
2022-08-26T01:31:52.689Z,100.00
2022-08-26T01:34:25.364Z,99.93
2022-08-26T01:37:07.802Z,100.00
2022-08-26T01:39:40.689Z,100.00
2022-08-26T01:42:14.394Z,100.00
2022-08-26T01:44:50.409Z,100.00
2022-08-26T01:47:21.618Z,100.00
2022-08-26T01:49:53.740Z,100.00
2022-08-26T01:52:28.125Z,100.00
2022-08-26T01:54:59.235Z,100.00
2022-08-26T01:57:29.263Z,100.00
2022-08-26T02:00:01.980Z,100.00
2022-08-26T02:02:46.366Z,100.00
2022-08-26T02:05:22.160Z,100.00
2022-08-26T02:07:51.026Z,100.00
2022-08-26T02:10:22.369Z,100.00
2022-08-26T02:12:51.704Z,100.00
2022-08-26T02:15:19.749Z,100.00
2022-08-26T02:17:49.552Z,100.00
2022-08-26T02:20:22.001Z,100.00
2022-08-26T02:22:50.197Z,100.00
2022-08-26T02:25:31.582Z,100.00
2022-08-26T02:28:00.444Z,100.00
2022-08-26T02:30:32.237Z,100.00
2022-08-26T02:33:04.037Z,100.00
2022-08-26T02:35:33.860Z,100.00
2022-08-26T02:38:09.856Z,100.00
2022-08-26T02:40:41.608Z,100.00
2022-08-26T02:43:12.498Z,100.00
2022-08-26T02:45:41.544Z,100.00
2022-08-26T02:48:14.879Z,100.00
2022-08-26T02:50:43.870Z,100.00
2022-08-26T02:53:13.225Z,100.00
2022-08-26T02:55:42.515Z,100.00
2022-08-26T02:58:11.722Z,100.00
2022-08-26T03:00:52.558Z,100.00
2022-08-26T03:03:22.563Z,100.00
2022-08-26T03:05:53.852Z,100.00
2022-08-26T03:08:22.489Z,100.00
2022-08-26T03:10:51.125Z,100.00
2022-08-26T03:13:19.235Z,100.00
2022-08-26T03:15:47.644Z,100.00
2022-08-26T03:18:16.458Z,100.00
2022-08-26T03:20:44.981Z,100.00
2022-08-26T03:23:13.010Z,100.00
2022-08-26T03:25:41.161Z,100.00
2022-08-26T03:28:09.700Z,100.00
2022-08-26T03:30:44.965Z,100.00
2022-08-26T03:33:14.493Z,100.00
2022-08-26T03:35:45.339Z,100.00
2022-08-26T03:38:14.136Z,100.00
2022-08-26T03:40:42.973Z,100.00
2022-08-26T03:43:14.669Z,100.00
2022-08-26T03:45:43.509Z,100.00
2022-08-26T03:48:14.605Z,100.00
2022-08-26T03:50:43.090Z,100.00
2022-08-26T03:53:12.804Z,100.00
2022-08-26T03:55:42.399Z,100.00
2022-08-26T03:58:11.417Z,100.00
2022-08-26T04:00:39.620Z,100.00
2022-08-26T04:03:07.761Z,100.00
2022-08-26T04:05:38.182Z,100.00
2022-08-26T04:08:07.241Z,100.00
2022-08-26T04:10:38.572Z,100.00
2022-08-26T04:13:06.812Z,100.00
2022-08-26T04:15:35.004Z,100.00
2022-08-26T04:18:03.029Z,100.00
2022-08-26T04:20:32.152Z,100.00
2022-08-26T04:23:00.488Z,100.00
2022-08-26T04:25:28.606Z,100.00
2022-08-26T04:27:57.289Z,100.00
2022-08-26T04:30:25.752Z,100.00
2022-08-26T04:32:54.819Z,100.00
2022-08-26T04:35:25.788Z,100.00
2022-08-26T04:37:54.446Z,100.00
2022-08-26T04:40:23.236Z,100.00
2022-08-26T04:42:51.602Z,100.00
2022-08-26T04:45:22.742Z,100.00
2022-08-26T04:47:56.762Z,100.00
2022-08-26T04:50:26.673Z,100.00
2022-08-26T04:52:55.737Z,100.00
2022-08-26T04:55:38.660Z,100.00
2022-08-26T04:58:10.966Z,100.00
2022-08-26T05:00:39.174Z,100.00
2022-08-26T05:03:07.785Z,100.00
2022-08-26T05:05:40.488Z,100.00
2022-08-26T05:08:12.972Z,100.00
2022-08-26T05:10:44.210Z,100.00
2022-08-26T05:13:18.170Z,100.00
2022-08-26T05:15:49.610Z,99.17
2022-08-26T05:18:21.366Z,97.13
2022-08-26T05:20:54.705Z,95.04
2022-08-26T05:23:25.061Z,93.49
2022-08-26T05:25:59.351Z,91.53
2022-08-26T05:28:30.402Z,90.43
2022-08-26T05:30:58.667Z,89.68
2022-08-26T05:33:26.947Z,88.71
2022-08-26T05:35:55.019Z,87.46
2022-08-26T05:38:23.399Z,86.56
2022-08-26T05:40:53.319Z,84.62
2022-08-26T05:43:21.714Z,82.24
2022-08-26T05:45:50.577Z,80.13
2022-08-26T05:48:22.715Z,78.09
2022-08-26T05:50:53.947Z,76.78
2022-08-26T05:53:25.928Z,75.16
2022-08-26T05:55:55.977Z,74.48
2022-08-26T05:58:24.284Z,74.54
2022-08-26T06:01:05.362Z,74.42
2022-08-26T06:03:37.261Z,74.56
2022-08-26T06:06:11.555Z,73.08
2022-08-26T06:08:39.960Z,73.51
2022-08-26T06:11:18.539Z,72.92
2022-08-26T06:13:47.275Z,72.49
2022-08-26T06:16:19.035Z,71.99
2022-08-26T06:18:48.591Z,70.77
2022-08-26T06:21:26.450Z,70.31
2022-08-26T06:24:20.105Z,70.01
2022-08-26T06:26:51.783Z,67.72
2022-08-26T06:29:24.023Z,67.02
2022-08-26T06:31:57.217Z,67.17
2022-08-26T06:34:30.346Z,66.64
2022-08-26T06:37:02.612Z,65.59
2022-08-26T06:39:32.104Z,64.99
2022-08-26T06:42:01.224Z,64.71
2022-08-26T06:44:30.887Z,64.63
2022-08-26T06:47:00.536Z,64.51
2022-08-26T06:49:28.632Z,63.84
2022-08-26T06:51:59.915Z,63.51
2022-08-26T06:54:31.792Z,63.67
2022-08-26T06:57:01.419Z,62.98
2022-08-26T06:59:31.378Z,63.25
2022-08-26T07:01:59.608Z,63.20
2022-08-26T07:04:28.227Z,62.57
2022-08-26T07:06:56.833Z,62.23
2022-08-26T07:09:30.442Z,61.08
2022-08-26T07:11:59.357Z,60.41
2022-08-26T07:14:27.900Z,60.67
2022-08-26T07:16:56.175Z,60.87
2022-08-26T07:19:30.401Z,60.99
2022-08-26T07:22:03.449Z,59.73
2022-08-26T07:24:35.021Z,60.53
2022-08-26T07:27:05.959Z,58.63
2022-08-26T07:29:36.036Z,59.04
2022-08-26T07:32:04.241Z,58.63
2022-08-26T07:34:33.633Z,58.55
2022-08-26T07:37:02.144Z,57.30
2022-08-26T07:39:32.335Z,57.31
2022-08-26T07:42:07.426Z,58.17
2022-08-26T07:44:38.205Z,57.53
2022-08-26T07:47:10.517Z,56.72
2022-08-26T07:49:56.515Z,57.38
2022-08-26T07:52:28.268Z,57.84
2022-08-26T07:54:58.372Z,57.86
2022-08-26T07:57:27.797Z,57.58
2022-08-26T07:59:56.962Z,56.78
2022-08-26T08:02:26.068Z,57.04
2022-08-26T08:04:55.571Z,57.61
2022-08-26T08:07:38.584Z,58.23
2022-08-26T08:10:16.381Z,57.18
2022-08-26T08:12:45.521Z,54.10
2022-08-26T08:15:14.476Z,54.00
2022-08-26T08:17:44.161Z,54.49
2022-08-26T08:20:13.982Z,55.12
2022-08-26T08:22:43.324Z,55.40
2022-08-26T08:25:12.587Z,55.14
2022-08-26T08:27:45.299Z,55.95
2022-08-26T08:30:15.383Z,56.19
2022-08-26T08:32:52.538Z,55.56
2022-08-26T08:35:22.807Z,53.98
2022-08-26T08:37:54.964Z,54.11
2022-08-26T08:40:26.606Z,53.52
2022-08-26T08:43:00.009Z,53.58
2022-08-26T08:45:35.909Z,52.95
2022-08-26T08:48:19.996Z,52.13
2022-08-26T08:50:54.423Z,52.26
2022-08-26T08:53:25.360Z,51.63
2022-08-26T08:55:58.504Z,50.75
2022-08-26T08:58:45.881Z,51.00
2022-08-26T09:01:28.554Z,50.74
2022-08-26T09:04:34.408Z,50.52
2022-08-26T09:07:07.206Z,50.33
2022-08-26T09:09:46.355Z,50.99
2022-08-26T09:12:29.612Z,51.22
2022-08-26T09:15:11.699Z,51.30
2022-08-26T09:18:01.089Z,51.57
2022-08-26T09:20:52.150Z,51.95
2022-08-26T09:23:20.431Z,52.38
2022-08-26T09:25:58.825Z,52.78
2022-08-26T09:28:29.577Z,53.36
2022-08-26T09:31:13.290Z,53.78
2022-08-26T09:33:42.372Z,53.78
2022-08-26T09:36:41.467Z,54.20
2022-08-26T09:39:29.777Z,54.20
2022-08-26T09:42:20.858Z,54.40
2022-08-26T09:44:52.411Z,52.80
2022-08-26T09:47:46.390Z,51.54
2022-08-26T09:50:31.461Z,50.38
2022-08-26T09:53:25.329Z,50.21
2022-08-26T09:56:25.784Z,50.84
2022-08-26T09:58:57.111Z,49.80
2022-08-26T10:01:41.954Z,50.01
2022-08-26T10:04:24.224Z,50.55
2022-08-26T10:06:58.987Z,50.92
2022-08-26T10:09:29.882Z,51.05
2022-08-26T10:12:03.499Z,50.89
2022-08-26T10:14:39.655Z,51.35
2022-08-26T10:17:11.156Z,51.12
2022-08-26T10:19:55.584Z,51.55
2022-08-26T10:22:42.977Z,51.29
2022-08-26T10:25:17.496Z,51.74
2022-08-26T10:27:53.451Z,52.42
2022-08-26T10:30:27.826Z,52.14
2022-08-26T10:33:02.334Z,52.01
2022-08-26T10:35:33.083Z,51.34
2022-08-26T10:38:11.431Z,51.64
2022-08-26T10:41:20.676Z,51.03
2022-08-26T10:43:57.640Z,50.72
2022-08-26T10:46:34.701Z,49.91
2022-08-26T10:49:14.684Z,49.27
2022-08-26T10:52:12.284Z,49.56
2022-08-26T10:54:56.910Z,49.28
2022-08-26T10:57:33.903Z,49.13
2022-08-26T11:00:33.552Z,48.83
2022-08-26T11:03:21.888Z,48.27
2022-08-26T11:06:23.756Z,48.35
2022-08-26T11:09:04.628Z,48.23
2022-08-26T11:11:41.666Z,48.16
2022-08-26T11:14:09.775Z,48.01
2022-08-26T11:16:46.377Z,48.31
2022-08-26T11:19:59.630Z,47.79
2022-08-26T11:22:33.601Z,47.66
2022-08-26T11:25:13.299Z,47.90
2022-08-26T11:27:41.779Z,48.88
2022-08-26T11:30:19.813Z,49.46
2022-08-26T11:32:52.592Z,48.69
2022-08-26T11:35:20.761Z,48.55
2022-08-26T11:37:49.244Z,49.17
2022-08-26T11:40:30.205Z,49.38
2022-08-26T11:43:02.594Z,48.23
2022-08-26T11:45:45.697Z,48.98
2022-08-26T11:48:23.849Z,49.64
2022-08-26T11:51:03.050Z,50.20
2022-08-26T11:53:35.216Z,49.89
2022-08-26T11:56:33.396Z,50.07
2022-08-26T11:59:08.188Z,50.81
2022-08-26T12:01:40.490Z,50.99
2022-08-26T12:04:12.851Z,50.67
2022-08-26T12:06:47.873Z,49.93
2022-08-26T12:09:28.920Z,49.81
2022-08-26T12:12:14.946Z,49.81
2022-08-26T12:14:43.518Z,49.86
2022-08-26T12:17:17.691Z,49.94
2022-08-26T12:19:47.410Z,50.72
2022-08-26T12:22:34.742Z,51.24
2022-08-26T12:25:09.460Z,51.93
2022-08-26T12:27:41.551Z,51.97
2022-08-26T12:30:14.856Z,51.80
2022-08-26T12:33:21.877Z,51.52
2022-08-26T12:35:56.382Z,51.58
2022-08-26T12:38:27.278Z,51.75
2022-08-26T12:40:56.022Z,51.44
2022-08-26T12:43:45.650Z,51.77
2022-08-26T12:46:18.534Z,51.92
2022-08-26T12:48:49.808Z,51.02
2022-08-26T12:51:25.512Z,51.13
2022-08-26T12:53:54.474Z,51.18
2022-08-26T12:56:31.470Z,51.17
2022-08-26T12:59:20.033Z,51.36
2022-08-26T13:01:49.759Z,51.78
2022-08-26T13:04:38.692Z,51.89
2022-08-26T13:07:26.669Z,51.83
2022-08-26T13:09:57.789Z,51.96
2022-08-26T13:12:35.219Z,52.12
2022-08-26T13:15:06.574Z,52.09
2022-08-26T13:17:36.273Z,52.28
2022-08-26T13:20:04.863Z,52.65
2022-08-26T13:22:34.064Z,53.33
2022-08-26T13:25:02.328Z,53.15
2022-08-26T13:27:30.785Z,52.91
2022-08-26T13:30:00.109Z,52.50
2022-08-26T13:32:28.894Z,52.76
2022-08-26T13:34:57.898Z,52.92
2022-08-26T13:37:34.230Z,52.66
2022-08-26T13:40:07.294Z,52.62
2022-08-26T13:42:35.921Z,52.86
2022-08-26T13:45:04.457Z,51.93
2022-08-26T13:47:33.059Z,51.81
2022-08-26T13:50:01.665Z,51.50
2022-08-26T13:52:31.018Z,51.13
2022-08-26T13:55:00.846Z,51.30
2022-08-26T13:57:30.556Z,51.08
2022-08-26T13:59:59.617Z,50.09
2022-08-26T14:02:28.341Z,49.36
2022-08-26T14:04:56.649Z,49.48
2022-08-26T14:07:26.468Z,49.29
2022-08-26T14:09:55.161Z,49.56
2022-08-26T14:12:23.371Z,49.78
2022-08-26T14:14:51.654Z,50.22
2022-08-26T14:17:23.036Z,50.29
2022-08-26T14:19:51.925Z,50.01
2022-08-26T14:22:22.769Z,49.95
2022-08-26T14:24:51.445Z,49.74
2022-08-26T14:27:19.612Z,49.79
2022-08-26T14:29:48.100Z,49.67
2022-08-26T14:32:26.292Z,49.96
2022-08-26T14:34:55.709Z,49.83
2022-08-26T14:37:24.149Z,49.71
2022-08-26T14:39:52.656Z,49.45
2022-08-26T14:42:24.835Z,49.46
2022-08-26T14:44:57.410Z,49.24
2022-08-26T14:47:26.019Z,49.16
2022-08-26T14:49:54.442Z,48.75
2022-08-26T14:52:22.649Z,49.16
2022-08-26T14:54:54.897Z,49.02
2022-08-26T14:57:23.827Z,49.31
2022-08-26T14:59:51.881Z,49.18
2022-08-26T15:02:29.703Z,49.46
2022-08-26T15:05:05.137Z,49.27
2022-08-26T15:07:33.288Z,49.06
2022-08-26T15:10:01.665Z,49.24
2022-08-26T15:12:32.761Z,49.47
2022-08-26T15:15:01.229Z,50.01
2022-08-26T15:17:29.597Z,50.07
2022-08-26T15:19:58.095Z,50.26
2022-08-26T15:22:26.591Z,49.65
2022-08-26T15:24:58.261Z,49.01
2022-08-26T15:27:26.822Z,48.35
2022-08-26T15:29:54.928Z,48.55
2022-08-26T15:32:23.179Z,49.03
2022-08-26T15:34:53.395Z,49.26
2022-08-26T15:37:21.706Z,49.38
2022-08-26T15:39:50.032Z,48.98
2022-08-26T15:42:18.286Z,48.35
2022-08-26T15:44:46.948Z,48.15
2022-08-26T15:47:15.302Z,47.60
2022-08-26T15:49:43.883Z,47.74
2022-08-26T15:52:12.172Z,48.06
2022-08-26T15:54:40.935Z,48.21
2022-08-26T15:57:11.525Z,48.17
2022-08-26T15:59:40.761Z,48.44
2022-08-26T16:02:09.751Z,48.46
2022-08-26T16:04:38.055Z,48.70
2022-08-26T16:07:06.283Z,48.92
2022-08-26T16:09:34.446Z,49.36
2022-08-26T16:12:02.868Z,49.26
2022-08-26T16:14:31.324Z,49.16
2022-08-26T16:16:59.545Z,49.42
2022-08-26T16:19:27.810Z,49.33
2022-08-26T16:21:55.986Z,49.65
2022-08-26T16:24:29.780Z,49.44
2022-08-26T16:26:58.782Z,49.81
2022-08-26T16:29:27.803Z,49.96
2022-08-26T16:31:55.945Z,50.21
2022-08-26T16:34:24.320Z,49.94
2022-08-26T16:36:52.573Z,50.18
2022-08-26T16:39:20.713Z,50.50
2022-08-26T16:41:48.950Z,50.72
2022-08-26T16:44:17.225Z,50.85
2022-08-26T16:46:46.097Z,50.74
2022-08-26T16:49:15.000Z,50.73
2022-08-26T16:51:43.241Z,50.90
2022-08-26T16:54:11.398Z,51.02
2022-08-26T16:56:39.617Z,50.83
2022-08-26T16:59:11.712Z,50.57
2022-08-26T17:01:40.158Z,50.50
2022-08-26T17:04:08.958Z,50.42
2022-08-26T17:06:37.332Z,50.28
2022-08-26T17:09:05.599Z,50.04
2022-08-26T17:11:34.100Z,50.08
2022-08-26T17:14:02.976Z,50.45
2022-08-26T17:16:32.198Z,50.52
2022-08-26T17:19:01.174Z,50.79
2022-08-26T17:21:30.217Z,51.16
2022-08-26T17:23:58.306Z,51.50
2022-08-26T17:26:28.331Z,51.87
2022-08-26T17:28:56.674Z,52.36
2022-08-26T17:31:25.312Z,52.57
2022-08-26T17:33:55.722Z,52.96
2022-08-26T17:36:27.559Z,53.19
2022-08-26T17:38:57.699Z,53.49
2022-08-26T17:41:27.010Z,53.86
2022-08-26T17:43:55.255Z,54.13
2022-08-26T17:46:24.174Z,54.38
2022-08-26T17:48:52.844Z,54.84
2022-08-26T17:51:22.063Z,55.10
2022-08-26T17:53:51.322Z,55.18
2022-08-26T17:56:25.666Z,55.64
2022-08-26T17:58:56.442Z,55.78
2022-08-26T18:01:27.897Z,55.87
2022-08-26T18:04:00.271Z,55.96
2022-08-26T18:06:30.478Z,56.05
2022-08-26T18:08:59.640Z,56.22
2022-08-26T18:11:28.725Z,56.07
2022-08-26T18:13:57.129Z,56.01
2022-08-26T18:16:25.274Z,56.01
2022-08-26T18:18:55.085Z,55.70
2022-08-26T18:21:27.252Z,55.63
2022-08-26T18:23:55.527Z,55.70
2022-08-26T18:26:25.461Z,55.81
2022-08-26T18:28:54.211Z,55.85
2022-08-26T18:31:22.700Z,55.83
2022-08-26T18:33:51.118Z,55.93
2022-08-26T18:36:21.834Z,55.69
2022-08-26T18:38:51.125Z,55.75
2022-08-26T18:41:23.987Z,55.55
2022-08-26T18:43:53.503Z,55.59
2022-08-26T18:46:25.256Z,55.71
2022-08-26T18:48:56.710Z,55.46
2022-08-26T18:51:29.796Z,55.37
2022-08-26T18:54:00.370Z,55.40
2022-08-26T18:56:29.480Z,55.31
2022-08-26T18:58:59.124Z,55.47
2022-08-26T19:01:29.121Z,55.57
2022-08-26T19:03:58.959Z,55.68
2022-08-26T19:06:29.031Z,55.85
2022-08-26T19:08:57.843Z,56.26
2022-08-26T19:11:32.109Z,56.13
2022-08-26T19:14:08.167Z,56.31
2022-08-26T19:16:37.668Z,56.65
2022-08-26T19:19:06.428Z,56.68
2022-08-26T19:21:36.136Z,56.70
2022-08-26T19:24:07.451Z,56.60
2022-08-26T19:26:36.747Z,56.56
2022-08-26T19:29:05.142Z,55.91
2022-08-26T19:31:33.742Z,55.90
2022-08-26T19:34:02.020Z,55.46
2022-08-26T19:36:30.132Z,54.97
2022-08-26T19:38:58.361Z,54.24
2022-08-26T19:41:36.864Z,54.00
2022-08-26T19:44:09.265Z,53.54
2022-08-26T19:49:06.726Z,52.76
2022-08-26T19:51:36.575Z,52.58
2022-08-26T19:54:05.320Z,52.33
2022-08-26T19:56:33.494Z,52.41
2022-08-26T19:59:01.977Z,52.48
2022-08-26T20:01:30.860Z,52.51
2022-08-26T20:03:59.140Z,52.50
2022-08-26T20:06:27.293Z,52.80
2022-08-26T20:08:56.200Z,52.83
2022-08-26T20:11:25.256Z,52.72
2022-08-26T20:13:53.594Z,52.69
2022-08-26T20:16:21.688Z,52.80
2022-08-26T20:19:08.346Z,52.67
2022-08-26T20:21:39.390Z,52.78
2022-08-26T20:24:10.156Z,52.80
2022-08-26T20:26:40.142Z,52.80
2022-08-26T20:29:10.053Z,52.87
2022-08-26T20:31:38.969Z,53.19
2022-08-26T20:34:07.380Z,53.33
2022-08-26T20:36:38.062Z,53.40
2022-08-26T20:39:06.548Z,53.42
2022-08-26T20:41:35.735Z,53.58
2022-08-26T20:44:05.667Z,53.71
2022-08-26T20:46:35.413Z,53.72
2022-08-26T20:49:05.911Z,53.89
2022-08-26T20:51:37.536Z,53.91
2022-08-26T20:54:07.443Z,54.31
2022-08-26T20:56:35.626Z,54.38
2022-08-26T20:59:07.042Z,54.31
2022-08-26T21:01:41.912Z,54.41
2022-08-26T21:04:14.276Z,54.52
2022-08-26T21:06:45.599Z,54.38
2022-08-26T21:09:24.856Z,54.56
2022-08-26T21:11:53.781Z,54.68
2022-08-26T21:14:25.912Z,54.79
2022-08-26T21:16:54.461Z,54.73
2022-08-26T21:19:22.772Z,54.73
2022-08-26T21:21:51.142Z,54.98
2022-08-26T21:24:19.720Z,54.90
2022-08-26T21:26:48.077Z,55.03
2022-08-26T21:29:16.516Z,54.93
2022-08-26T21:31:46.736Z,55.06
2022-08-26T21:34:18.767Z,55.14
2022-08-26T21:36:47.926Z,55.20
2022-08-26T21:39:17.045Z,55.40
2022-08-26T21:41:47.589Z,55.47
2022-08-26T21:44:17.265Z,55.65
2022-08-26T21:46:46.920Z,55.69
2022-08-26T21:49:16.755Z,56.04
2022-08-26T21:51:47.613Z,55.97
2022-08-26T21:54:16.822Z,56.12
2022-08-26T21:56:47.218Z,56.31
2022-08-26T21:59:17.810Z,56.53
2022-08-26T22:01:46.662Z,56.78
2022-08-26T22:04:15.475Z,56.95
2022-08-26T22:06:46.328Z,56.97
2022-08-26T22:09:17.241Z,57.18
2022-08-26T22:11:47.589Z,57.49
2022-08-26T22:14:17.790Z,57.37
2022-08-26T22:16:50.691Z,57.70
2022-08-26T22:19:23.473Z,58.04
2022-08-26T22:21:53.951Z,57.90
2022-08-26T22:24:25.034Z,58.23
2022-08-26T22:26:54.625Z,58.29
2022-08-26T22:29:24.851Z,58.60
2022-08-26T22:31:53.645Z,58.60
2022-08-26T22:34:23.373Z,58.78
2022-08-26T22:36:52.041Z,58.96
2022-08-26T22:39:23.970Z,59.00
2022-08-26T22:41:53.518Z,59.18
2022-08-26T22:44:22.431Z,59.10
2022-08-26T22:46:54.564Z,59.17
2022-08-26T22:49:23.779Z,59.29
2022-08-26T22:51:51.902Z,59.58
2022-08-26T22:54:20.283Z,59.58
2022-08-26T22:56:48.988Z,59.61
2022-08-26T22:59:17.260Z,59.83
2022-08-26T23:01:47.174Z,59.82
2022-08-26T23:04:15.696Z,59.87
2022-08-26T23:06:47.722Z,59.92
2022-08-26T23:09:18.675Z,59.93
2022-08-26T23:11:48.718Z,59.95
2022-08-26T23:14:18.925Z,60.06
2022-08-26T23:16:48.238Z,60.07
2022-08-26T23:19:19.198Z,60.18
2022-08-26T23:21:48.768Z,60.34
2022-08-26T23:24:18.233Z,60.24
2022-08-26T23:26:47.183Z,60.47
2022-08-26T23:29:16.094Z,60.49
2022-08-26T23:31:45.562Z,60.69
2022-08-26T23:34:32.999Z,60.70
2022-08-26T23:37:02.144Z,60.77
2022-08-26T23:39:36.024Z,60.85
2022-08-26T23:42:06.885Z,60.90
2022-08-26T23:44:35.251Z,61.15
2022-08-26T23:47:05.041Z,61.28
2022-08-26T23:49:34.097Z,61.40
2022-08-26T23:52:21.749Z,61.39
2022-08-26T23:54:49.952Z,61.49
2022-08-26T23:57:19.840Z,61.74
2022-08-26T23:59:48.978Z,61.78
